Tuesday, January 23, 2018, 7:17 AM EST
Back to Local

KHVN, Tweed-new Haven Airport

Location: East Haven, CT, United States Lat: 41.267
Local Time: 7:17 AM EST (12:17 GMT) Lon: -72.883
Time Zone: US/Eastern Elev: 13 ft

Show me the last for .
Show Decoded

2018-01-23 06:53 METAR KHVN 231153Z 04004KT 1/2SM R02/2400V3500FT FG VV002 03/03 A2985 RMK AO2
                 SLP109 T00330028 10050 20033 56035 =
2018-01-23 05:53 METAR KHVN 231053Z 03006KT 1/2SM R02/2600V3000FT FG VV002 03/03 A2989 RMK AO2
                 SLP121 T00330028 =
2018-01-23 04:53 METAR KHVN 230953Z AUTO 02003KT 1/2SM R02/3000V3500FT FG VV002 03/03 A2992 RMK
                 AO2 SLP130 T00330028 =
2018-01-23 03:53 METAR KHVN 230853Z AUTO 01005KT 3/4SM R02/3500V4000FT BR VV002 04/03 A2996 RMK
                 AO2 SLP143 T00390028 58033 =
2018-01-23 02:53 METAR KHVN 230753Z AUTO 02005KT 1/2SM R02/2600V3000FT FG VV002 04/04 A2999 RMK
                 AO2 SLP155 T00440039 =
2018-01-23 02:16 METAR KHVN 230716Z AUTO 04005KT 1/2SM R02/2200V2400FT FG VV002 04/03 A3000 RMK
                 AO2 PRESFR T00440033 =
2018-01-23 01:53 METAR KHVN 230653Z AUTO 02004KT 1/4SM R02/2000FT FG VV002 04/04 A3003 RMK AO2
                 SLP168 T00440039 =
2018-01-23 01:30 METAR KHVN 230630Z AUTO 03005KT 1/4SM R02/2000V2200FT FG VV002 04/04 A3004 RMK
                 AO2 T00440039 =
2018-01-23 01:19 METAR KHVN 230619Z AUTO 03004KT 1/4SM R02/2200V2400FT FG VV002 05/04 A3005 RMK
                 AO2 T00500039 =
2018-01-23 01:00 METAR KHVN 230600Z AUTO 03003KT 1/2SM R02/2400V2600FT FG VV002 05/04 A3006 RMK
                 AO2 T00500039 =
2018-01-23 00:53 METAR KHVN 230553Z AUTO 04005KT 1/4SM R02/2200V2400FT FG VV002 05/04 A3005 RMK
                 AO2 SLP176 T00500039 10061 20050 58025 =
2018-01-23 00:19 METAR KHVN 230519Z AUTO 03004KT 1/4SM R02/2000V2200FT FG VV002 05/04 A3009 RMK
                 AO2 T00500039 =
2018-01-22 23:53 METAR KHVN 230453Z AUTO 02003KT 3/4SM R02/3500V4000FT BR VV002 05/04 A3010 RMK
                 AO2 SLP191 T00500039 400830028 =
2018-01-22 23:42 METAR KHVN 230442Z AUTO 03006KT 1 1/4SM R02/4500VP6000FT BR OVC003 05/04 A3009
                 RMK AO2 T00500039 =
2018-01-22 23:32 METAR KHVN 230432Z AUTO 01005KT 2SM BR OVC003 05/03 A3010 RMK AO2 T00500033 =
2018-01-22 22:53 METAR KHVN 230353Z AUTO 04005KT 5SM BR OVC004 05/03 A3010 RMK AO2 SLP194
                 T00500033 =
2018-01-22 21:53 METAR KHVN 230253Z 06006KT 6SM BR OVC006 06/03 A3013 RMK AO2 SLP202 T00560033
                 58019 =
2018-01-22 20:53 METAR KHVN 230153Z 07005KT 7SM OVC008 06/03 A3016 RMK AO2 SLP213 T00560033 =
2018-01-22 19:53 METAR KHVN 230053Z 06007KT 8SM OVC009 06/03 A3017 RMK AO2 SLP216 T00610033 =
2018-01-22 19:35 METAR KHVN 230035Z 08005KT 8SM OVC009 06/03 A3017 RMK AO2 T00610033 =
2018-01-22 18:53 METAR KHVN 222353Z 08005KT 8SM OVC010 06/03 A3018 RMK AO2 SLP220 T00610033 10083
                 20061 52007 =
2018-01-22 18:13 METAR KHVN 222313Z 08006KT 7SM OVC010 06/03 A3018 RMK AO2 T00610033 =
2018-01-22 17:53 METAR KHVN 222253Z 09007KT 7SM OVC009 06/03 A3017 RMK AO2 SLP217 T00610033 =
2018-01-22 17:28 METAR KHVN 222228Z 09008KT 7SM OVC010 06/03 A3018 RMK AO2 T00610033 =
2018-01-22 16:53 METAR KHVN 222153Z 09006KT 6SM HZ OVC009 07/04 A3017 RMK AO2 SLP217 T00670039 =
2018-01-22 16:37 METAR KHVN 222137Z 08008KT 5SM HZ OVC009 07/04 A3017 RMK AO2 T00670039 =
2018-01-22 15:53 METAR KHVN 222053Z 11004KT 7SM OVC012 07/03 A3016 RMK AO2 SLP213 T00720033 56006
                 =
2018-01-22 14:53 METAR KHVN 221953Z 00000KT 5SM HZ OVC014 07/03 A3017 RMK AO2 SLP216 T00720033 =
2018-01-22 13:53 METAR KHVN 221853Z 01007KT 5SM HZ OVC013 07/03 A3017 RMK AO2 SLP216 T00720033 =
2018-01-22 12:53 METAR KHVN 221753Z 36008KT 4SM HZ BKN013 OVC023 07/03 A3018 RMK AO2 SLP220
                 T00670033 10072 20044 56012 =
2018-01-22 11:53 METAR KHVN 221653Z 35006KT 4SM HZ OVC012 07/04 A3020 RMK AO2 SLP224 T00670039 =
2018-01-22 10:53 METAR KHVN 221553Z 02004KT 5SM BR SCT012 OVC022 07/04 A3020 RMK AO2 SLP227
                 T00670044 =
2018-01-22 09:53 METAR KHVN 221453Z 02007KT 3SM BR BKN012 OVC025 05/03 A3022 RMK AO2 SLP232
                 T00500033 50001 =
2018-01-22 09:50 METAR KHVN 221450Z 02008KT 3SM BR BKN012 OVC025 05/03 A3022 RMK AO2 =
2018-01-22 08:53 METAR KHVN 221353Z 01006KT 2 1/2SM BR BKN012 OVC025 04/03 A3021 RMK AO2 SLP231
                 T00440028 =
2018-01-22 08:48 METAR KHVN 221348Z 36006KT 2 1/2SM BR OVC012 04/03 A3021 RMK AO2 =
2018-01-22 08:10 METAR KHVN 221310Z 00000KT 4SM BR BKN012 OVC026 05/03 A3020 RMK AO2 T00500028 =
2018-01-22 07:53 METAR KHVN 221253Z VRB03KT 4SM BR OVC026 05/03 A3019 RMK AO2 SLP221 T00500028 =

Support USWX by starting your Amazon purchase here.